createdAt,value
2019-03-23T00:02:06.055Z,6.00
2019-03-23T00:07:10.426Z,5.75
2019-03-23T00:12:14.748Z,6.75
2019-03-23T00:17:19.141Z,5.25
2019-03-23T00:22:23.637Z,6.80
2019-03-23T00:27:27.967Z,6.00
2019-03-23T00:32:32.400Z,6.00
2019-03-23T00:37:36.816Z,7.00
2019-03-23T00:42:41.148Z,6.50
2019-03-23T00:47:45.563Z,6.50
2019-03-23T00:52:49.866Z,4.40
2019-03-23T00:57:54.267Z,8.00
2019-03-23T01:02:58.639Z,5.20
2019-03-23T01:08:03.095Z,5.25
2019-03-23T01:13:07.422Z,5.00
2019-03-23T01:18:11.791Z,5.75
2019-03-23T01:23:16.110Z,6.00
2019-03-23T01:28:20.418Z,5.50
2019-03-23T01:33:24.751Z,5.75
2019-03-23T01:38:29.214Z,5.00
2019-03-23T01:43:33.537Z,5.50
2019-03-23T01:48:37.833Z,5.00
2019-03-23T01:53:42.148Z,5.75
2019-03-23T01:58:48.779Z,6.00
2019-03-23T02:03:53.125Z,4.00
2019-03-23T02:08:57.461Z,5.00
2019-03-23T02:14:01.812Z,5.00
2019-03-23T02:19:06.127Z,4.75
2019-03-23T02:24:10.477Z,4.80
2019-03-23T02:29:14.808Z,5.60
2019-03-23T02:34:19.135Z,5.00
2019-03-23T02:39:23.485Z,4.50
2019-03-23T02:44:27.809Z,5.00
2019-03-23T02:49:32.167Z,5.00
2019-03-23T02:54:36.543Z,5.00
2019-03-23T02:59:41.013Z,4.20
2019-03-23T03:04:45.400Z,5.00
2019-03-23T03:09:49.721Z,4.00
2019-03-23T03:14:54.014Z,5.25
2019-03-23T03:19:58.365Z,5.00
2019-03-23T03:25:03.007Z,5.00
2019-03-23T03:30:09.221Z,4.80
2019-03-23T03:35:13.728Z,4.80
2019-03-23T03:40:18.061Z,4.40
2019-03-23T03:45:26.111Z,3.60
2019-03-23T03:50:30.512Z,4.00
2019-03-23T03:55:34.952Z,4.00
2019-03-23T04:00:39.303Z,3.40
2019-03-23T04:05:43.630Z,4.75
2019-03-23T04:10:47.960Z,4.00
2019-03-23T04:15:52.287Z,4.00
2019-03-23T04:20:56.623Z,4.00
2019-03-23T04:26:00.973Z,4.00
2019-03-23T04:31:05.277Z,3.40
2019-03-23T04:36:09.584Z,4.20
2019-03-23T04:41:13.888Z,3.00
2019-03-23T04:46:18.189Z,3.00
2019-03-23T04:51:22.553Z,4.75
2019-03-23T04:56:26.842Z,3.75
2019-03-23T05:01:31.210Z,3.75
2019-03-23T05:06:35.736Z,4.00
2019-03-23T05:11:40.077Z,3.80
2019-03-23T05:16:44.530Z,3.60
2019-03-23T05:21:48.862Z,3.75
2019-03-23T05:26:53.207Z,4.00
2019-03-23T05:31:57.520Z,3.00
2019-03-23T05:37:01.810Z,3.20
2019-03-23T05:42:06.101Z,3.50
2019-03-23T05:47:10.428Z,3.00
2019-03-23T05:52:14.770Z,3.00
2019-03-23T05:57:19.918Z,3.25
2019-03-23T06:02:24.390Z,3.00
2019-03-23T06:07:28.683Z,3.60
2019-03-23T06:12:32.977Z,3.25
2019-03-23T06:17:37.364Z,3.00
2019-03-23T06:22:42.407Z,3.40
2019-03-23T06:27:46.712Z,3.80
2019-03-23T06:32:51.088Z,3.60
2019-03-23T06:37:55.442Z,3.75
2019-03-23T06:43:00.149Z,3.00
2019-03-23T06:48:04.813Z,3.00
2019-03-23T06:53:10.302Z,2.50
2019-03-23T06:58:14.599Z,3.00
2019-03-23T07:03:18.925Z,3.00
2019-03-23T07:08:31.576Z,2.75
2019-03-23T07:13:29.266Z,3.00
2019-03-23T07:18:33.602Z,3.50
2019-03-23T07:23:37.899Z,3.00
2019-03-23T07:28:42.197Z,2.75
2019-03-23T07:33:46.515Z,2.60
2019-03-23T07:38:50.845Z,2.60
2019-03-23T07:43:55.232Z,3.00
2019-03-23T07:48:59.536Z,3.00
2019-03-23T07:54:03.862Z,3.00
2019-03-23T07:59:08.410Z,9.75
2019-03-23T08:04:12.817Z,18.00
2019-03-23T08:09:20.759Z,18.40
2019-03-23T08:14:23.165Z,15.00
2019-03-23T08:19:27.502Z,12.60
2019-03-23T08:24:31.827Z,10.50
2019-03-23T08:29:36.136Z,10.75
2019-03-23T08:34:40.467Z,10.60
2019-03-23T08:39:48.758Z,9.50
2019-03-23T08:44:50.861Z,10.00
2019-03-23T08:49:55.167Z,8.75
2019-03-23T08:54:59.505Z,9.00
2019-03-23T09:05:22.317Z,9.50
2019-03-23T09:10:26.630Z,9.00
2019-03-23T09:15:30.933Z,9.00
2019-03-23T09:20:35.314Z,9.20
2019-03-23T09:25:39.616Z,9.50
2019-03-23T09:30:43.945Z,9.00
2019-03-23T09:35:48.255Z,9.75
2019-03-23T09:40:52.572Z,9.00
2019-03-23T09:45:56.943Z,9.50
2019-03-23T09:51:01.268Z,9.00
2019-03-23T09:56:05.710Z,10.00
2019-03-23T10:01:10.033Z,10.25
2019-03-23T10:06:14.354Z,10.00
2019-03-23T10:11:18.723Z,9.80
2019-03-23T10:16:23.049Z,9.00
2019-03-23T10:21:27.419Z,13.50
2019-03-23T10:26:31.872Z,12.80
2019-03-23T10:31:36.281Z,10.00
2019-03-23T10:36:40.702Z,10.00
2019-03-23T10:41:45.011Z,11.00
2019-03-23T10:46:49.328Z,11.00
2019-03-23T10:51:53.673Z,10.80
2019-03-23T10:56:58.173Z,14.00
2019-03-23T11:02:02.505Z,12.00
2019-03-23T11:07:06.847Z,11.00
2019-03-23T11:12:11.206Z,10.00
2019-03-23T11:17:17.540Z,12.80
2019-03-23T11:22:21.846Z,13.00
2019-03-23T11:27:26.166Z,16.00
2019-03-23T11:32:30.512Z,18.80
2019-03-23T11:37:35.016Z,20.50
2019-03-23T11:42:49.382Z,19.75
2019-03-23T11:47:45.456Z,18.00
2019-03-23T11:52:49.770Z,21.20
2019-03-23T11:57:54.087Z,18.50
2019-03-23T12:02:58.474Z,19.00
2019-03-23T12:08:02.854Z,20.75
2019-03-23T12:13:07.150Z,18.50
2019-03-23T12:18:11.476Z,19.40
2019-03-23T12:23:15.783Z,17.50
2019-03-23T12:28:20.095Z,19.00
2019-03-23T12:33:24.506Z,16.00
2019-03-23T12:38:28.892Z,15.60
2019-03-23T12:43:33.226Z,22.00
2019-03-23T12:48:37.554Z,23.40
2019-03-23T13:27:15.134Z,16.80
2019-03-23T13:32:19.428Z,15.00
2019-03-23T13:37:23.716Z,18.00
2019-03-23T13:42:28.076Z,19.00
2019-03-23T13:47:34.494Z,20.50
2019-03-23T13:52:38.429Z,22.75
2019-03-23T13:57:42.745Z,18.20
2019-03-23T14:02:47.082Z,23.00
2019-03-23T14:07:51.417Z,23.75
2019-03-23T14:12:55.704Z,23.00
2019-03-23T14:18:00.018Z,25.00
2019-03-23T14:23:04.343Z,25.25
2019-03-23T14:28:08.658Z,28.00
2019-03-23T14:33:12.962Z,29.00
2019-03-23T15:05:31.610Z,24.20
2019-03-23T15:10:35.935Z,23.33
2019-03-23T15:15:40.303Z,23.00
2019-03-23T15:20:44.627Z,22.80
2019-03-23T15:25:49.000Z,21.00
2019-03-23T15:30:53.299Z,22.00
2019-03-23T15:35:57.673Z,22.00
2019-03-23T15:41:02.015Z,20.00
2019-03-23T15:46:06.346Z,17.80
2019-03-23T15:51:10.641Z,19.00
2019-03-23T15:56:14.989Z,19.50
2019-03-23T16:01:19.299Z,19.00
2019-03-23T16:06:23.750Z,18.75
2019-03-23T16:11:28.153Z,18.00
2019-03-23T16:16:32.508Z,19.60
2019-03-23T16:21:36.852Z,18.00
2019-03-23T16:26:41.164Z,20.00
2019-03-23T16:31:45.509Z,19.25
2019-03-23T16:36:49.879Z,19.00
2019-03-23T16:41:54.189Z,20.00
2019-03-23T16:46:58.513Z,22.20
2019-03-23T16:52:02.848Z,22.75
2019-03-23T16:57:07.168Z,21.25
2019-03-23T17:02:11.474Z,22.00
2019-03-23T17:07:15.769Z,22.50
2019-03-23T17:12:20.084Z,22.50
2019-03-23T17:17:24.476Z,22.00
2019-03-23T17:22:28.781Z,18.25
2019-03-23T17:27:33.091Z,18.00
2019-03-23T17:32:37.939Z,17.75
2019-03-23T17:37:42.412Z,16.60
2019-03-23T17:42:46.751Z,16.00
2019-03-23T17:47:51.084Z,15.00
2019-03-23T17:52:55.412Z,13.50
2019-03-23T17:57:59.685Z,14.75
2019-03-23T18:03:04.008Z,12.00
2019-03-23T18:08:08.310Z,13.50
2019-03-23T18:13:16.788Z,13.00
2019-03-23T18:18:18.739Z,13.00
2019-03-23T18:23:23.027Z,13.00
2019-03-23T18:28:27.343Z,11.25
2019-03-23T18:33:31.638Z,13.00
2019-03-23T18:38:36.067Z,12.40
2019-03-23T18:43:40.419Z,11.75
2019-03-23T18:48:44.738Z,12.60
2019-03-23T18:53:49.035Z,12.20
2019-03-23T18:58:53.352Z,12.00
2019-03-23T19:03:57.926Z,12.60
2019-03-23T19:09:02.240Z,12.00
2019-03-23T19:14:06.585Z,12.50
2019-03-23T19:19:10.929Z,12.00
2019-03-23T19:24:15.240Z,10.50
2019-03-23T19:29:19.580Z,11.75
2019-03-23T19:34:23.896Z,11.75
2019-03-23T19:39:28.271Z,12.00
2019-03-23T19:44:32.595Z,11.00
2019-03-23T19:49:36.921Z,11.20
2019-03-23T19:54:41.239Z,12.25
2019-03-23T19:59:45.654Z,12.00
2019-03-23T20:04:49.959Z,10.25
2019-03-23T20:09:54.257Z,10.75
2019-03-23T20:14:58.560Z,11.25
2019-03-23T20:20:02.894Z,10.60
2019-03-23T20:25:07.239Z,10.80
2019-03-23T20:30:11.709Z,11.17
2019-03-23T20:35:16.028Z,11.00
2019-03-23T20:40:20.410Z,14.60
2019-03-23T20:45:29.543Z,12.25
2019-03-23T20:50:33.848Z,10.50
2019-03-23T20:55:38.139Z,9.75
2019-03-23T21:00:42.534Z,11.75
2019-03-23T21:05:46.907Z,10.00
2019-03-23T21:10:51.305Z,11.00
2019-03-23T21:15:55.594Z,10.25
2019-03-23T21:20:59.975Z,10.00
2019-03-23T21:26:04.343Z,9.60
2019-03-23T21:31:08.648Z,9.60
2019-03-23T21:36:12.944Z,8.50
2019-03-23T21:41:17.233Z,10.75
2019-03-23T21:46:21.531Z,10.00
2019-03-23T21:51:25.865Z,10.00
2019-03-23T21:56:30.160Z,8.00
2019-03-23T22:01:34.453Z,9.40
2019-03-23T22:06:38.754Z,8.50
2019-03-23T22:11:43.041Z,8.75
2019-03-23T22:16:47.339Z,8.25
2019-03-23T22:21:51.628Z,8.80
2019-03-23T22:26:55.919Z,9.75
2019-03-23T22:32:00.239Z,9.00
2019-03-23T22:37:04.528Z,8.75
2019-03-23T22:42:08.846Z,8.80
2019-03-23T22:47:13.192Z,7.40
2019-03-23T22:52:17.587Z,8.60
2019-03-23T22:57:21.896Z,8.00
2019-03-23T23:02:26.601Z,8.50
2019-03-23T23:07:30.971Z,6.50
2019-03-23T23:12:35.291Z,8.00
2019-03-23T23:17:39.677Z,8.00
2019-03-23T23:22:43.999Z,8.00
2019-03-23T23:27:48.395Z,8.00
2019-03-23T23:32:52.742Z,6.20
2019-03-23T23:37:57.067Z,8.00
2019-03-23T23:43:01.391Z,9.00
2019-03-23T23:48:05.801Z,8.20
2019-03-23T23:53:10.143Z,6.00
2019-03-23T23:58:14.475Z,7.60
